sensor_id;sensor_type;location;lat;lon;timestamp;temperature;humidity
4364;DHT22;15337;48.202;12.770;2022-10-31T00:02:07;9.20;99.90
4364;DHT22;15337;48.202;12.770;2022-10-31T00:04:34;9.20;99.90
4364;DHT22;15337;48.202;12.770;2022-10-31T00:07:01;9.10;99.90
4364;DHT22;15337;48.202;12.770;2022-10-31T00:09:28;9.10;99.90
4364;DHT22;15337;48.202;12.770;2022-10-31T00:11:55;9.10;99.90
4364;DHT22;15337;48.202;12.770;2022-10-31T00:14:22;9.10;99.90
4364;DHT22;15337;48.202;12.770;2022-10-31T00:16:49;9.00;99.90
4364;DHT22;15337;48.202;12.770;2022-10-31T00:19:17;9.00;99.90
4364;DHT22;15337;48.202;12.770;2022-10-31T00:21:44;9.00;99.90
4364;DHT22;15337;48.202;12.770;2022-10-31T00:24:11;9.00;99.90
4364;DHT22;15337;48.202;12.770;2022-10-31T00:26:38;8.90;99.90
4364;DHT22;15337;48.202;12.770;2022-10-31T00:29:05;8.90;99.90
4364;DHT22;15337;48.202;12.770;2022-10-31T00:31:32;8.90;99.90
4364;DHT22;15337;48.202;12.770;2022-10-31T00:33:59;8.80;99.90
4364;DHT22;15337;48.202;12.770;2022-10-31T00:36:29;8.80;99.90
4364;DHT22;15337;48.202;12.770;2022-10-31T00:38:58;8.70;99.90
4364;DHT22;15337;48.202;12.770;2022-10-31T00:41:25;8.70;99.90
4364;DHT22;15337;48.202;12.770;2022-10-31T00:43:52;8.70;99.90
4364;DHT22;15337;48.202;12.770;2022-10-31T00:46:18;8.70;99.90
4364;DHT22;15337;48.202;12.770;2022-10-31T00:48:45;8.60;99.90
4364;DHT22;15337;48.202;12.770;2022-10-31T00:51:12;8.60;99.90
4364;DHT22;15337;48.202;12.770;2022-10-31T00:53:40;8.60;99.90
4364;DHT22;15337;48.202;12.770;2022-10-31T00:56:07;8.60;99.90
4364;DHT22;15337;48.202;12.770;2022-10-31T00:58:34;8.50;99.90
4364;DHT22;15337;48.202;12.770;2022-10-31T01:01:01;8.50;99.90
4364;DHT22;15337;48.202;12.770;2022-10-31T01:03:31;8.50;99.90
4364;DHT22;15337;48.202;12.770;2022-10-31T01:05:59;8.50;99.90
4364;DHT22;15337;48.202;12.770;2022-10-31T01:08:27;8.40;99.90
4364;DHT22;15337;48.202;12.770;2022-10-31T01:11:06;8.40;99.90
4364;DHT22;15337;48.202;12.770;2022-10-31T01:13:33;8.40;99.90
4364;DHT22;15337;48.202;12.770;2022-10-31T01:16:01;8.30;99.90
4364;DHT22;15337;48.202;12.770;2022-10-31T01:18:28;8.30;99.90
4364;DHT22;15337;48.202;12.770;2022-10-31T01:21:02;8.30;99.90
4364;DHT22;15337;48.202;12.770;2022-10-31T01:23:30;8.30;99.90
4364;DHT22;15337;48.202;12.770;2022-10-31T01:26:03;8.20;99.90
4364;DHT22;15337;48.202;12.770;2022-10-31T01:28:30;8.30;99.90
4364;DHT22;15337;48.202;12.770;2022-10-31T01:31:00;8.30;99.90
4364;DHT22;15337;48.202;12.770;2022-10-31T01:33:28;8.30;99.90
4364;DHT22;15337;48.202;12.770;2022-10-31T01:35:54;8.20;99.90
4364;DHT22;15337;48.202;12.770;2022-10-31T01:38:21;8.20;99.90
4364;DHT22;15337;48.202;12.770;2022-10-31T01:40:48;8.20;99.90
4364;DHT22;15337;48.202;12.770;2022-10-31T01:43:17;8.10;99.90
4364;DHT22;15337;48.202;12.770;2022-10-31T01:45:48;8.10;99.90
4364;DHT22;15337;48.202;12.770;2022-10-31T01:48:20;8.10;99.90
4364;DHT22;15337;48.202;12.770;2022-10-31T01:50:48;8.00;99.90
4364;DHT22;15337;48.202;12.770;2022-10-31T01:53:17;8.00;99.90
4364;DHT22;15337;48.202;12.770;2022-10-31T01:55:46;8.00;99.90
4364;DHT22;15337;48.202;12.770;2022-10-31T01:58:14;8.00;99.90
4364;DHT22;15337;48.202;12.770;2022-10-31T02:00:46;8.00;99.90
4364;DHT22;15337;48.202;12.770;2022-10-31T02:03:15;8.00;99.90
4364;DHT22;15337;48.202;12.770;2022-10-31T02:05:43;8.00;99.90
4364;DHT22;15337;48.202;12.770;2022-10-31T02:08:14;8.00;99.90
4364;DHT22;15337;48.202;12.770;2022-10-31T02:10:43;7.90;99.90
4364;DHT22;15337;48.202;12.770;2022-10-31T02:13:11;7.90;99.90
4364;DHT22;15337;48.202;12.770;2022-10-31T02:15:39;7.90;99.90
4364;DHT22;15337;48.202;12.770;2022-10-31T02:18:08;7.90;99.90
4364;DHT22;15337;48.202;12.770;2022-10-31T02:20:42;7.90;99.90
4364;DHT22;15337;48.202;12.770;2022-10-31T02:26:51;7.90;99.90
4364;DHT22;15337;48.202;12.770;2022-10-31T02:29:45;7.80;99.90
4364;DHT22;15337;48.202;12.770;2022-10-31T02:32:25;7.80;99.90
4364;DHT22;15337;48.202;12.770;2022-10-31T02:34:58;7.80;99.90
4364;DHT22;15337;48.202;12.770;2022-10-31T02:37:31;7.80;99.90
4364;DHT22;15337;48.202;12.770;2022-10-31T02:40:08;7.70;99.90
4364;DHT22;15337;48.202;12.770;2022-10-31T02:42:42;7.70;99.90
4364;DHT22;15337;48.202;12.770;2022-10-31T02:45:17;7.70;99.90
4364;DHT22;15337;48.202;12.770;2022-10-31T02:47:49;7.70;99.90
4364;DHT22;15337;48.202;12.770;2022-10-31T02:50:19;7.70;99.90
4364;DHT22;15337;48.202;12.770;2022-10-31T02:52:50;7.70;99.90
4364;DHT22;15337;48.202;12.770;2022-10-31T02:55:49;7.70;99.90
4364;DHT22;15337;48.202;12.770;2022-10-31T02:58:20;7.70;99.90
4364;DHT22;15337;48.202;12.770;2022-10-31T03:06:33;7.70;99.90
4364;DHT22;15337;48.202;12.770;2022-10-31T03:09:07;7.60;99.90
4364;DHT22;15337;48.202;12.770;2022-10-31T03:11:42;7.60;99.90
4364;DHT22;15337;48.202;12.770;2022-10-31T03:14:14;7.60;99.90
4364;DHT22;15337;48.202;12.770;2022-10-31T03:16:46;7.60;99.90
4364;DHT22;15337;48.202;12.770;2022-10-31T03:19:16;7.60;99.90
4364;DHT22;15337;48.202;12.770;2022-10-31T03:21:47;7.60;99.90
4364;DHT22;15337;48.202;12.770;2022-10-31T03:24:16;7.50;99.90
4364;DHT22;15337;48.202;12.770;2022-10-31T03:26:48;7.50;99.90
4364;DHT22;15337;48.202;12.770;2022-10-31T03:29:19;7.50;99.90
4364;DHT22;15337;48.202;12.770;2022-10-31T03:31:50;7.50;99.90
4364;DHT22;15337;48.202;12.770;2022-10-31T03:34:20;7.50;99.90
4364;DHT22;15337;48.202;12.770;2022-10-31T03:36:50;7.50;99.90
4364;DHT22;15337;48.202;12.770;2022-10-31T03:39:20;7.50;99.90
4364;DHT22;15337;48.202;12.770;2022-10-31T03:41:52;7.50;99.90
4364;DHT22;15337;48.202;12.770;2022-10-31T03:44:21;7.50;99.90
4364;DHT22;15337;48.202;12.770;2022-10-31T03:46:49;7.50;99.90
4364;DHT22;15337;48.202;12.770;2022-10-31T03:49:17;7.40;99.90
4364;DHT22;15337;48.202;12.770;2022-10-31T03:51:49;7.40;99.90
4364;DHT22;15337;48.202;12.770;2022-10-31T03:54:23;7.40;99.90
4364;DHT22;15337;48.202;12.770;2022-10-31T03:56:54;7.40;99.90
4364;DHT22;15337;48.202;12.770;2022-10-31T03:59:26;7.40;99.90
4364;DHT22;15337;48.202;12.770;2022-10-31T04:01:58;7.30;99.90
4364;DHT22;15337;48.202;12.770;2022-10-31T04:04:27;7.30;99.90
4364;DHT22;15337;48.202;12.770;2022-10-31T04:06:58;7.30;99.90
4364;DHT22;15337;48.202;12.770;2022-10-31T04:09:28;7.30;99.90
4364;DHT22;15337;48.202;12.770;2022-10-31T04:11:59;7.30;99.90
4364;DHT22;15337;48.202;12.770;2022-10-31T04:14:29;7.20;99.90
4364;DHT22;15337;48.202;12.770;2022-10-31T04:16:59;7.20;99.90
4364;DHT22;15337;48.202;12.770;2022-10-31T04:19:26;7.20;99.90
4364;DHT22;15337;48.202;12.770;2022-10-31T04:21:53;7.20;99.90
4364;DHT22;15337;48.202;12.770;2022-10-31T04:24:21;7.10;99.90
4364;DHT22;15337;48.202;12.770;2022-10-31T04:26:48;7.20;99.90
4364;DHT22;15337;48.202;12.770;2022-10-31T04:29:15;7.10;99.90
4364;DHT22;15337;48.202;12.770;2022-10-31T04:31:42;7.10;99.90
4364;DHT22;15337;48.202;12.770;2022-10-31T04:34:09;7.10;99.90
4364;DHT22;15337;48.202;12.770;2022-10-31T04:36:38;7.10;99.90
4364;DHT22;15337;48.202;12.770;2022-10-31T04:39:05;7.10;99.90
4364;DHT22;15337;48.202;12.770;2022-10-31T04:41:33;7.00;99.90
4364;DHT22;15337;48.202;12.770;2022-10-31T04:44:00;7.00;99.90
4364;DHT22;15337;48.202;12.770;2022-10-31T04:46:27;7.00;99.90
4364;DHT22;15337;48.202;12.770;2022-10-31T04:48:54;7.00;99.90
4364;DHT22;15337;48.202;12.770;2022-10-31T04:51:21;6.90;99.90
4364;DHT22;15337;48.202;12.770;2022-10-31T04:53:48;6.90;99.90
4364;DHT22;15337;48.202;12.770;2022-10-31T04:56:14;6.90;99.90
4364;DHT22;15337;48.202;12.770;2022-10-31T04:58:43;6.90;99.90
4364;DHT22;15337;48.202;12.770;2022-10-31T05:01:10;7.00;99.90
4364;DHT22;15337;48.202;12.770;2022-10-31T05:03:37;6.90;99.90
4364;DHT22;15337;48.202;12.770;2022-10-31T05:06:05;6.90;99.90
4364;DHT22;15337;48.202;12.770;2022-10-31T05:08:32;6.90;99.90
4364;DHT22;15337;48.202;12.770;2022-10-31T05:10:59;6.90;99.90
4364;DHT22;15337;48.202;12.770;2022-10-31T05:13:27;6.90;99.90
4364;DHT22;15337;48.202;12.770;2022-10-31T05:15:55;6.90;99.90
4364;DHT22;15337;48.202;12.770;2022-10-31T05:18:23;6.90;99.90
4364;DHT22;15337;48.202;12.770;2022-10-31T05:20:49;6.90;99.90
4364;DHT22;15337;48.202;12.770;2022-10-31T05:23:16;6.90;99.90
4364;DHT22;15337;48.202;12.770;2022-10-31T05:25:43;6.80;99.90
4364;DHT22;15337;48.202;12.770;2022-10-31T05:28:10;6.90;99.90
4364;DHT22;15337;48.202;12.770;2022-10-31T05:30:37;6.90;99.90
4364;DHT22;15337;48.202;12.770;2022-10-31T05:33:05;6.90;99.90
4364;DHT22;15337;48.202;12.770;2022-10-31T05:35:32;6.90;99.90
4364;DHT22;15337;48.202;12.770;2022-10-31T05:38:00;6.90;99.90
4364;DHT22;15337;48.202;12.770;2022-10-31T05:40:27;6.90;99.90
4364;DHT22;15337;48.202;12.770;2022-10-31T05:42:55;6.90;99.90
4364;DHT22;15337;48.202;12.770;2022-10-31T05:45:24;6.90;99.90
4364;DHT22;15337;48.202;12.770;2022-10-31T05:47:51;6.90;99.90
4364;DHT22;15337;48.202;12.770;2022-10-31T05:50:20;6.90;99.90
4364;DHT22;15337;48.202;12.770;2022-10-31T05:52:53;6.90;99.90
4364;DHT22;15337;48.202;12.770;2022-10-31T05:55:20;6.90;99.90
4364;DHT22;15337;48.202;12.770;2022-10-31T05:57:47;7.00;99.90
4364;DHT22;15337;48.202;12.770;2022-10-31T06:00:14;7.00;99.90
4364;DHT22;15337;48.202;12.770;2022-10-31T06:02:41;7.00;99.90
4364;DHT22;15337;48.202;12.770;2022-10-31T06:05:08;7.00;99.90
4364;DHT22;15337;48.202;12.770;2022-10-31T06:07:36;7.00;99.90
4364;DHT22;15337;48.202;12.770;2022-10-31T06:10:06;7.00;99.90
4364;DHT22;15337;48.202;12.770;2022-10-31T06:12:34;7.00;99.90
4364;DHT22;15337;48.202;12.770;2022-10-31T06:15:03;7.00;99.90
4364;DHT22;15337;48.202;12.770;2022-10-31T06:17:31;7.00;99.90
4364;DHT22;15337;48.202;12.770;2022-10-31T06:19:57;7.00;99.90
4364;DHT22;15337;48.202;12.770;2022-10-31T06:22:24;7.00;99.90
4364;DHT22;15337;48.202;12.770;2022-10-31T06:24:53;7.00;99.90
4364;DHT22;15337;48.202;12.770;2022-10-31T06:27:20;7.00;99.90
4364;DHT22;15337;48.202;12.770;2022-10-31T06:29:46;7.00;99.90
4364;DHT22;15337;48.202;12.770;2022-10-31T06:32:14;7.10;99.90
4364;DHT22;15337;48.202;12.770;2022-10-31T06:34:41;7.10;99.90
4364;DHT22;15337;48.202;12.770;2022-10-31T06:37:09;7.10;99.90
4364;DHT22;15337;48.202;12.770;2022-10-31T06:39:36;7.10;99.90
4364;DHT22;15337;48.202;12.770;2022-10-31T06:42:05;7.20;99.90
4364;DHT22;15337;48.202;12.770;2022-10-31T06:44:32;7.20;99.90
4364;DHT22;15337;48.202;12.770;2022-10-31T06:46:59;7.20;99.90
4364;DHT22;15337;48.202;12.770;2022-10-31T06:49:26;7.30;99.90
4364;DHT22;15337;48.202;12.770;2022-10-31T06:51:53;7.30;99.90
4364;DHT22;15337;48.202;12.770;2022-10-31T06:54:20;7.30;99.90
4364;DHT22;15337;48.202;12.770;2022-10-31T06:56:47;7.20;99.90
4364;DHT22;15337;48.202;12.770;2022-10-31T06:59:15;7.20;99.90
4364;DHT22;15337;48.202;12.770;2022-10-31T07:01:43;7.30;99.90
4364;DHT22;15337;48.202;12.770;2022-10-31T07:04:10;7.40;99.90
4364;DHT22;15337;48.202;12.770;2022-10-31T07:06:37;7.50;99.90
4364;DHT22;15337;48.202;12.770;2022-10-31T07:09:05;7.60;99.90
4364;DHT22;15337;48.202;12.770;2022-10-31T07:11:32;7.70;99.90
4364;DHT22;15337;48.202;12.770;2022-10-31T07:13:59;7.80;99.90
4364;DHT22;15337;48.202;12.770;2022-10-31T07:16:27;7.90;99.90
4364;DHT22;15337;48.202;12.770;2022-10-31T07:18:54;7.90;99.90
4364;DHT22;15337;48.202;12.770;2022-10-31T07:21:21;8.00;99.90
4364;DHT22;15337;48.202;12.770;2022-10-31T07:23:48;8.10;99.90
4364;DHT22;15337;48.202;12.770;2022-10-31T07:26:15;8.20;99.90
4364;DHT22;15337;48.202;12.770;2022-10-31T07:28:42;8.30;99.90
4364;DHT22;15337;48.202;12.770;2022-10-31T07:31:09;8.40;99.90
4364;DHT22;15337;48.202;12.770;2022-10-31T07:33:37;8.50;99.90
4364;DHT22;15337;48.202;12.770;2022-10-31T07:36:05;8.60;99.90
4364;DHT22;15337;48.202;12.770;2022-10-31T07:38:31;8.70;99.90
4364;DHT22;15337;48.202;12.770;2022-10-31T07:40:58;8.70;99.90
4364;DHT22;15337;48.202;12.770;2022-10-31T07:43:25;8.70;99.90
4364;DHT22;15337;48.202;12.770;2022-10-31T07:45:53;8.80;99.90
4364;DHT22;15337;48.202;12.770;2022-10-31T07:48:21;9.00;99.90
4364;DHT22;15337;48.202;12.770;2022-10-31T07:50:49;9.10;99.90
4364;DHT22;15337;48.202;12.770;2022-10-31T07:53:16;9.20;99.90
4364;DHT22;15337;48.202;12.770;2022-10-31T07:55:43;9.30;99.90
4364;DHT22;15337;48.202;12.770;2022-10-31T07:58:11;9.40;99.90
4364;DHT22;15337;48.202;12.770;2022-10-31T08:00:39;9.40;99.90
4364;DHT22;15337;48.202;12.770;2022-10-31T08:03:08;9.60;99.90
4364;DHT22;15337;48.202;12.770;2022-10-31T08:05:36;9.80;99.90
4364;DHT22;15337;48.202;12.770;2022-10-31T08:08:05;9.80;99.90
4364;DHT22;15337;48.202;12.770;2022-10-31T08:10:33;9.80;99.90
4364;DHT22;15337;48.202;12.770;2022-10-31T08:13:01;9.70;99.90
4364;DHT22;15337;48.202;12.770;2022-10-31T08:15:29;9.70;99.90
4364;DHT22;15337;48.202;12.770;2022-10-31T08:17:56;9.80;99.90
4364;DHT22;15337;48.202;12.770;2022-10-31T08:20:23;9.90;99.90
4364;DHT22;15337;48.202;12.770;2022-10-31T08:22:54;10.00;99.90
4364;DHT22;15337;48.202;12.770;2022-10-31T08:25:23;10.10;99.90
4364;DHT22;15337;48.202;12.770;2022-10-31T08:27:51;10.10;99.90
4364;DHT22;15337;48.202;12.770;2022-10-31T08:30:18;10.20;99.90
4364;DHT22;15337;48.202;12.770;2022-10-31T08:32:46;10.30;99.90
4364;DHT22;15337;48.202;12.770;2022-10-31T08:35:13;10.30;99.90
4364;DHT22;15337;48.202;12.770;2022-10-31T08:37:40;10.40;99.90
4364;DHT22;15337;48.202;12.770;2022-10-31T08:40:08;10.50;99.90
4364;DHT22;15337;48.202;12.770;2022-10-31T08:42:37;10.60;99.90
4364;DHT22;15337;48.202;12.770;2022-10-31T08:45:05;10.70;99.90
4364;DHT22;15337;48.202;12.770;2022-10-31T08:47:32;10.80;99.90
4364;DHT22;15337;48.202;12.770;2022-10-31T08:49:59;10.90;99.90
4364;DHT22;15337;48.202;12.770;2022-10-31T08:52:25;11.00;99.90
4364;DHT22;15337;48.202;12.770;2022-10-31T08:54:52;11.10;99.90
4364;DHT22;15337;48.202;12.770;2022-10-31T08:57:19;11.20;99.90
4364;DHT22;15337;48.202;12.770;2022-10-31T08:59:48;11.30;99.90
4364;DHT22;15337;48.202;12.770;2022-10-31T09:02:15;11.40;99.90
4364;DHT22;15337;48.202;12.770;2022-10-31T09:04:42;11.50;99.90
4364;DHT22;15337;48.202;12.770;2022-10-31T09:07:09;11.50;99.90
4364;DHT22;15337;48.202;12.770;2022-10-31T09:09:36;11.60;99.90
4364;DHT22;15337;48.202;12.770;2022-10-31T09:12:03;11.70;99.90
4364;DHT22;15337;48.202;12.770;2022-10-31T09:14:30;11.80;99.90
4364;DHT22;15337;48.202;12.770;2022-10-31T09:16:58;11.90;99.90
4364;DHT22;15337;48.202;12.770;2022-10-31T09:19:25;12.00;99.90
4364;DHT22;15337;48.202;12.770;2022-10-31T09:21:53;12.20;99.90
4364;DHT22;15337;48.202;12.770;2022-10-31T09:24:20;12.20;99.90
4364;DHT22;15337;48.202;12.770;2022-10-31T09:26:47;12.30;99.90
4364;DHT22;15337;48.202;12.770;2022-10-31T09:29:14;12.40;99.90
4364;DHT22;15337;48.202;12.770;2022-10-31T09:31:41;12.50;99.90
4364;DHT22;15337;48.202;12.770;2022-10-31T09:34:09;12.70;99.90
4364;DHT22;15337;48.202;12.770;2022-10-31T09:36:36;12.80;99.90
4364;DHT22;15337;48.202;12.770;2022-10-31T09:39:03;12.90;99.90
4364;DHT22;15337;48.202;12.770;2022-10-31T09:41:46;13.00;99.90
4364;DHT22;15337;48.202;12.770;2022-10-31T09:44:21;13.20;99.90
4364;DHT22;15337;48.202;12.770;2022-10-31T09:47:00;13.40;99.90
4364;DHT22;15337;48.202;12.770;2022-10-31T09:49:37;13.50;99.90
4364;DHT22;15337;48.202;12.770;2022-10-31T09:52:12;13.70;99.90
4364;DHT22;15337;48.202;12.770;2022-10-31T09:54:44;13.90;99.90
4364;DHT22;15337;48.202;12.770;2022-10-31T09:57:14;14.00;99.90
4364;DHT22;15337;48.202;12.770;2022-10-31T09:59:43;14.30;99.90
4364;DHT22;15337;48.202;12.770;2022-10-31T10:02:16;14.40;99.90
4364;DHT22;15337;48.202;12.770;2022-10-31T10:04:53;14.60;99.90
4364;DHT22;15337;48.202;12.770;2022-10-31T10:07:29;14.70;99.90
4364;DHT22;15337;48.202;12.770;2022-10-31T10:09:56;14.90;99.90
4364;DHT22;15337;48.202;12.770;2022-10-31T10:12:33;15.10;99.90
4364;DHT22;15337;48.202;12.770;2022-10-31T10:15:26;15.30;99.90
4364;DHT22;15337;48.202;12.770;2022-10-31T10:18:03;15.40;99.90
4364;DHT22;15337;48.202;12.770;2022-10-31T10:20:36;15.60;99.90
4364;DHT22;15337;48.202;12.770;2022-10-31T10:23:19;15.70;99.90
4364;DHT22;15337;48.202;12.770;2022-10-31T10:25:53;15.90;99.90
4364;DHT22;15337;48.202;12.770;2022-10-31T10:28:26;16.00;99.90
4364;DHT22;15337;48.202;12.770;2022-10-31T10:30:56;16.10;99.90
4364;DHT22;15337;48.202;12.770;2022-10-31T10:33:30;16.20;99.90
4364;DHT22;15337;48.202;12.770;2022-10-31T10:36:01;16.30;99.90
4364;DHT22;15337;48.202;12.770;2022-10-31T10:38:34;16.40;99.90
4364;DHT22;15337;48.202;12.770;2022-10-31T10:41:06;16.50;99.90
4364;DHT22;15337;48.202;12.770;2022-10-31T10:43:37;16.60;99.90
4364;DHT22;15337;48.202;12.770;2022-10-31T10:46:23;16.60;99.90
4364;DHT22;15337;48.202;12.770;2022-10-31T10:49:16;16.70;99.90
4364;DHT22;15337;48.202;12.770;2022-10-31T10:51:47;16.80;99.90
4364;DHT22;15337;48.202;12.770;2022-10-31T10:54:33;16.90;99.90
4364;DHT22;15337;48.202;12.770;2022-10-31T10:57:14;17.00;99.90
4364;DHT22;15337;48.202;12.770;2022-10-31T10:59:43;17.10;99.90
4364;DHT22;15337;48.202;12.770;2022-10-31T11:02:17;17.10;99.90
4364;DHT22;15337;48.202;12.770;2022-10-31T11:04:49;17.20;99.90
4364;DHT22;15337;48.202;12.770;2022-10-31T11:07:18;17.30;99.90
4364;DHT22;15337;48.202;12.770;2022-10-31T11:09:45;17.40;99.90
4364;DHT22;15337;48.202;12.770;2022-10-31T11:12:21;17.50;99.90
4364;DHT22;15337;48.202;12.770;2022-10-31T11:14:51;17.60;99.90
4364;DHT22;15337;48.202;12.770;2022-10-31T11:17:25;17.60;99.90
4364;DHT22;15337;48.202;12.770;2022-10-31T11:20:22;17.70;99.90
4364;DHT22;15337;48.202;12.770;2022-10-31T11:23:02;17.80;99.90
4364;DHT22;15337;48.202;12.770;2022-10-31T11:25:30;17.80;99.90
4364;DHT22;15337;48.202;12.770;2022-10-31T11:28:01;17.80;99.90
4364;DHT22;15337;48.202;12.770;2022-10-31T11:30:28;17.90;99.90
4364;DHT22;15337;48.202;12.770;2022-10-31T11:32:56;17.90;99.90
4364;DHT22;15337;48.202;12.770;2022-10-31T11:35:24;17.90;99.90
4364;DHT22;15337;48.202;12.770;2022-10-31T11:37:54;18.00;99.90
4364;DHT22;15337;48.202;12.770;2022-10-31T11:40:26;18.10;99.90
4364;DHT22;15337;48.202;12.770;2022-10-31T11:42:55;18.10;99.20
4364;DHT22;15337;48.202;12.770;2022-10-31T11:45:31;18.20;99.80
4364;DHT22;15337;48.202;12.770;2022-10-31T11:48:00;18.30;99.90
4364;DHT22;15337;48.202;12.770;2022-10-31T11:50:32;18.40;99.90
4364;DHT22;15337;48.202;12.770;2022-10-31T11:53:03;18.50;99.50
4364;DHT22;15337;48.202;12.770;2022-10-31T11:55:32;18.50;99.90
4364;DHT22;15337;48.202;12.770;2022-10-31T11:58:00;18.60;99.20
4364;DHT22;15337;48.202;12.770;2022-10-31T12:00:29;18.60;98.70
4364;DHT22;15337;48.202;12.770;2022-10-31T12:03:28;18.60;98.30
4364;DHT22;15337;48.202;12.770;2022-10-31T12:06:00;18.70;97.80
4364;DHT22;15337;48.202;12.770;2022-10-31T12:08:31;18.70;97.50
4364;DHT22;15337;48.202;12.770;2022-10-31T12:11:03;18.80;97.70
4364;DHT22;15337;48.202;12.770;2022-10-31T12:13:34;18.90;99.20
4364;DHT22;15337;48.202;12.770;2022-10-31T12:16:11;18.90;98.00
4364;DHT22;15337;48.202;12.770;2022-10-31T12:18:55;18.90;98.60
4364;DHT22;15337;48.202;12.770;2022-10-31T12:21:48;19.00;97.30
4364;DHT22;15337;48.202;12.770;2022-10-31T12:24:29;19.00;97.90
4364;DHT22;15337;48.202;12.770;2022-10-31T12:27:10;18.90;96.70
4364;DHT22;15337;48.202;12.770;2022-10-31T12:29:48;19.00;97.10
4364;DHT22;15337;48.202;12.770;2022-10-31T12:32:29;19.00;96.50
4364;DHT22;15337;48.202;12.770;2022-10-31T12:35:20;19.10;97.90
4364;DHT22;15337;48.202;12.770;2022-10-31T12:38:02;19.20;98.30
4364;DHT22;15337;48.202;12.770;2022-10-31T12:40:53;19.10;97.50
4364;DHT22;15337;48.202;12.770;2022-10-31T12:43:35;19.00;97.40
4364;DHT22;15337;48.202;12.770;2022-10-31T12:46:07;19.00;97.30
4364;DHT22;15337;48.202;12.770;2022-10-31T12:49:09;18.90;96.00
4364;DHT22;15337;48.202;12.770;2022-10-31T12:51:42;18.90;95.10
4364;DHT22;15337;48.202;12.770;2022-10-31T12:54:29;18.90;94.40
4364;DHT22;15337;48.202;12.770;2022-10-31T12:57:05;18.90;93.50
4364;DHT22;15337;48.202;12.770;2022-10-31T12:59:39;18.80;93.30
4364;DHT22;15337;48.202;12.770;2022-10-31T13:02:13;18.80;93.70
4364;DHT22;15337;48.202;12.770;2022-10-31T13:04:47;18.80;93.30
4364;DHT22;15337;48.202;12.770;2022-10-31T13:07:19;18.80;92.80
4364;DHT22;15337;48.202;12.770;2022-10-31T13:09:53;18.70;92.10
4364;DHT22;15337;48.202;12.770;2022-10-31T13:12:23;18.70;93.30
4364;DHT22;15337;48.202;12.770;2022-10-31T13:14:53;18.70;93.30
4364;DHT22;15337;48.202;12.770;2022-10-31T13:17:28;18.60;93.20
4364;DHT22;15337;48.202;12.770;2022-10-31T13:20:05;18.60;93.30
4364;DHT22;15337;48.202;12.770;2022-10-31T13:22:36;18.60;93.90
4364;DHT22;15337;48.202;12.770;2022-10-31T13:25:11;18.60;94.70
4364;DHT22;15337;48.202;12.770;2022-10-31T13:27:46;18.60;95.20
4364;DHT22;15337;48.202;12.770;2022-10-31T13:30:17;18.60;95.60
4364;DHT22;15337;48.202;12.770;2022-10-31T13:32:47;18.60;95.20
4364;DHT22;15337;48.202;12.770;2022-10-31T13:35:22;18.50;95.30
4364;DHT22;15337;48.202;12.770;2022-10-31T13:38:02;18.50;95.10
4364;DHT22;15337;48.202;12.770;2022-10-31T13:40:36;18.50;96.20
4364;DHT22;15337;48.202;12.770;2022-10-31T13:43:13;18.40;96.30
4364;DHT22;15337;48.202;12.770;2022-10-31T13:45:48;18.40;96.00
4364;DHT22;15337;48.202;12.770;2022-10-31T13:48:37;18.40;97.30
4364;DHT22;15337;48.202;12.770;2022-10-31T13:51:06;18.30;98.00
4364;DHT22;15337;48.202;12.770;2022-10-31T13:53:58;18.30;98.50
4364;DHT22;15337;48.202;12.770;2022-10-31T13:56:26;18.30;98.60
4364;DHT22;15337;48.202;12.770;2022-10-31T13:59:03;18.20;99.20
4364;DHT22;15337;48.202;12.770;2022-10-31T14:01:32;18.20;99.60
4364;DHT22;15337;48.202;12.770;2022-10-31T14:04:03;18.20;99.60
4364;DHT22;15337;48.202;12.770;2022-10-31T14:06:44;18.30;99.90
4364;DHT22;15337;48.202;12.770;2022-10-31T14:09:27;18.30;99.90
4364;DHT22;15337;48.202;12.770;2022-10-31T14:11:55;18.20;99.90
4364;DHT22;15337;48.202;12.770;2022-10-31T14:14:29;18.20;99.90
4364;DHT22;15337;48.202;12.770;2022-10-31T14:16:57;18.20;99.90
4364;DHT22;15337;48.202;12.770;2022-10-31T14:19:24;18.10;99.90
4364;DHT22;15337;48.202;12.770;2022-10-31T14:21:52;18.10;99.90
4364;DHT22;15337;48.202;12.770;2022-10-31T14:24:34;18.10;99.90
4364;DHT22;15337;48.202;12.770;2022-10-31T14:27:30;18.10;99.90
4364;DHT22;15337;48.202;12.770;2022-10-31T14:29:53;18.00;99.90
4364;DHT22;15337;48.202;12.770;2022-10-31T14:32:22;18.00;99.90
4364;DHT22;15337;48.202;12.770;2022-10-31T14:34:54;17.90;99.90
4364;DHT22;15337;48.202;12.770;2022-10-31T14:37:35;17.90;99.90
4364;DHT22;15337;48.202;12.770;2022-10-31T14:40:20;17.90;99.90
4364;DHT22;15337;48.202;12.770;2022-10-31T14:43:08;17.80;99.90
4364;DHT22;15337;48.202;12.770;2022-10-31T14:45:47;17.80;99.90
4364;DHT22;15337;48.202;12.770;2022-10-31T14:48:42;17.80;99.90
4364;DHT22;15337;48.202;12.770;2022-10-31T14:51:17;17.80;99.90
4364;DHT22;15337;48.202;12.770;2022-10-31T14:53:47;17.70;99.90
4364;DHT22;15337;48.202;12.770;2022-10-31T14:56:20;17.70;99.90
4364;DHT22;15337;48.202;12.770;2022-10-31T14:58:48;17.70;99.90
4364;DHT22;15337;48.202;12.770;2022-10-31T15:01:25;17.70;99.90
4364;DHT22;15337;48.202;12.770;2022-10-31T15:03:55;17.70;99.90
4364;DHT22;15337;48.202;12.770;2022-10-31T15:06:24;17.60;99.90
4364;DHT22;15337;48.202;12.770;2022-10-31T15:08:53;17.60;99.90
4364;DHT22;15337;48.202;12.770;2022-10-31T15:11:21;17.50;99.90
4364;DHT22;15337;48.202;12.770;2022-10-31T15:13:50;17.50;99.90
4364;DHT22;15337;48.202;12.770;2022-10-31T15:16:20;17.50;99.90
4364;DHT22;15337;48.202;12.770;2022-10-31T15:18:56;17.50;99.90
4364;DHT22;15337;48.202;12.770;2022-10-31T15:21:26;17.40;99.90
4364;DHT22;15337;48.202;12.770;2022-10-31T15:23:56;17.40;99.90
4364;DHT22;15337;48.202;12.770;2022-10-31T15:26:27;17.40;99.90
4364;DHT22;15337;48.202;12.770;2022-10-31T15:28:58;17.30;99.90
4364;DHT22;15337;48.202;12.770;2022-10-31T15:31:27;17.30;99.90
4364;DHT22;15337;48.202;12.770;2022-10-31T15:33:59;17.20;99.90
4364;DHT22;15337;48.202;12.770;2022-10-31T15:36:27;17.20;99.90
4364;DHT22;15337;48.202;12.770;2022-10-31T15:38:56;17.10;99.90
4364;DHT22;15337;48.202;12.770;2022-10-31T15:41:34;17.10;99.90
4364;DHT22;15337;48.202;12.770;2022-10-31T15:44:04;17.00;99.90
4364;DHT22;15337;48.202;12.770;2022-10-31T15:46:33;16.90;99.90
4364;DHT22;15337;48.202;12.770;2022-10-31T15:49:02;16.90;99.90
4364;DHT22;15337;48.202;12.770;2022-10-31T15:51:32;16.80;99.90
4364;DHT22;15337;48.202;12.770;2022-10-31T15:54:00;16.80;99.90
4364;DHT22;15337;48.202;12.770;2022-10-31T15:56:29;16.70;99.90
4364;DHT22;15337;48.202;12.770;2022-10-31T15:58:58;16.70;99.90
4364;DHT22;15337;48.202;12.770;2022-10-31T16:01:27;16.60;99.90
4364;DHT22;15337;48.202;12.770;2022-10-31T16:04:05;16.50;99.90
4364;DHT22;15337;48.202;12.770;2022-10-31T16:06:33;16.50;99.90
4364;DHT22;15337;48.202;12.770;2022-10-31T16:09:01;16.50;99.90
4364;DHT22;15337;48.202;12.770;2022-10-31T16:11:34;16.30;99.90